Time;durP1;ratioP1;P1;durP2;ratioP2;P2;SDS_P1;SDS_P2;PMS_P1;PMS_P2;Temp;Humidity;BMP_temperature;BMP_pressure;BME280_temperature;BME280_humidity;BME280_pressure;Samples;Min_cycle;Max_cycle;Signal;HPM_P1;HPM_P2
2022/07/02 00:01:51;;;;;;;7.30;2.20;;;;;;;;;;4998936;28;20628;-39
2022/07/02 00:04:21;;;;;;;7.70;2.37;;;;;;;;;;4997098;28;21248;-40
2022/07/02 00:06:50;;;;;;;7.23;2.10;;;;;;;;;;5000441;28;20176;-41
2022/07/02 00:09:16;;;;;;;4.17;1.70;;;;;;;;;;5000588;28;20214;-40
2022/07/02 00:11:42;;;;;;;3.83;1.83;;;;;;;;;;4998504;28;20616;-40
2022/07/02 00:14:09;;;;;;;6.47;2.33;;;;;;;;;;5000964;28;20180;-40
2022/07/02 00:16:36;;;;;;;6.23;2.30;;;;;;;;;;5004044;28;20204;-41
2022/07/02 00:19:02;;;;;;;6.07;2.10;;;;;;;;;;5004378;28;20954;-41
2022/07/02 00:21:28;;;;;;;4.87;2.20;;;;;;;;;;5000963;28;20921;-41
2022/07/02 00:23:54;;;;;;;7.80;2.27;;;;;;;;;;5001005;28;20184;-41
2022/07/02 00:26:27;;;;;;;5.20;2.07;;;;;;;;;;4999827;28;20176;-41
2022/07/02 00:29:01;;;;;;;4.57;2.37;;;;;;;;;;4997211;28;20199;-41
2022/07/02 00:31:28;;;;;;;9.23;2.00;;;;;;;;;;5003452;28;20645;-42
2022/07/02 00:33:55;;;;;;;8.33;2.23;;;;;;;;;;5001423;28;20989;-42
2022/07/02 00:36:22;;;;;;;4.40;2.00;;;;;;;;;;4999552;28;20291;-41
2022/07/02 00:38:51;;;;;;;11.10;2.03;;;;;;;;;;4999390;28;20740;-41
2022/07/02 00:41:18;;;;;;;6.20;2.20;;;;;;;;;;5002798;28;20509;-42
2022/07/02 00:43:46;;;;;;;5.73;1.83;;;;;;;;;;5003774;28;20176;-41
2022/07/02 00:46:12;;;;;;;5.13;1.80;;;;;;;;;;4998613;28;20183;-42
2022/07/02 00:48:39;;;;;;;7.80;2.10;;;;;;;;;;4999369;28;20165;-42
2022/07/02 00:51:05;;;;;;;3.03;1.70;;;;;;;;;;5002886;28;20712;-42
2022/07/02 00:53:31;;;;;;;3.67;1.60;;;;;;;;;;4999583;28;20972;-42
2022/07/02 00:55:57;;;;;;;7.90;2.03;;;;;;;;;;4994625;28;20578;-41
2022/07/02 00:58:24;;;;;;;4.93;2.30;;;;;;;;;;5002083;28;20705;-42
2022/07/02 01:00:50;;;;;;;5.60;2.07;;;;;;;;;;5000996;28;21136;-41
2022/07/02 01:03:21;;;;;;;4.50;2.03;;;;;;;;;;5001612;28;20427;-42
2022/07/02 01:05:49;;;;;;;7.27;2.00;;;;;;;;;;4997524;28;20264;-42
2022/07/02 01:11:02;;;;;;;5.47;2.17;;;;;;;;;;4997714;28;20299;-43
2022/07/02 01:13:32;;;;;;;3.67;2.00;;;;;;;;;;4999276;28;20285;-41
2022/07/02 01:15:58;;;;;;;6.50;2.10;;;;;;;;;;5003336;28;20568;-43
2022/07/02 01:18:24;;;;;;;5.40;2.10;;;;;;;;;;5001664;28;20450;-42
2022/07/02 01:20:50;;;;;;;2.53;1.83;;;;;;;;;;4998679;28;20180;-41
2022/07/02 01:23:17;;;;;;;5.43;1.83;;;;;;;;;;4997058;28;20341;-40
2022/07/02 01:25:50;;;;;;;6.83;2.23;;;;;;;;;;5001069;28;20175;-39
2022/07/02 01:28:17;;;;;;;8.63;2.03;;;;;;;;;;4999667;28;20768;-40
2022/07/02 01:30:43;;;;;;;3.73;2.03;;;;;;;;;;4997739;28;20898;-41
2022/07/02 01:33:09;;;;;;;3.70;2.20;;;;;;;;;;5002850;28;20183;-41
2022/07/02 01:35:35;;;;;;;6.40;2.20;;;;;;;;;;5008811;28;20211;-41
2022/07/02 01:38:01;;;;;;;6.77;1.93;;;;;;;;;;5005155;28;20629;-40
2022/07/02 01:40:27;;;;;;;5.63;2.10;;;;;;;;;;5007434;28;20182;-40
2022/07/02 01:42:53;;;;;;;7.03;2.40;;;;;;;;;;5009051;28;20206;-43
2022/07/02 01:45:19;;;;;;;5.90;2.67;;;;;;;;;;5012336;28;20219;-42
2022/07/02 01:47:46;;;;;;;4.50;2.00;;;;;;;;;;5011780;28;20718;-42
2022/07/02 01:50:12;;;;;;;4.90;2.37;;;;;;;;;;5009862;28;20559;-42
2022/07/02 01:52:38;;;;;;;4.73;2.20;;;;;;;;;;5008066;28;20484;-44
2022/07/02 01:55:05;;;;;;;6.70;2.07;;;;;;;;;;5011016;28;20481;-43
2022/07/02 01:57:35;;;;;;;6.70;2.40;;;;;;;;;;5010761;28;20187;-41
2022/07/02 02:00:03;;;;;;;6.23;1.90;;;;;;;;;;5011283;28;20608;-41
2022/07/02 02:02:29;;;;;;;5.20;1.90;;;;;;;;;;5007453;28;20527;-42
2022/07/02 02:04:55;;;;;;;5.17;2.07;;;;;;;;;;5001253;28;20696;-41
2022/07/02 02:07:21;;;;;;;4.83;2.27;;;;;;;;;;5001091;28;20180;-40
2022/07/02 02:09:47;;;;;;;2.17;1.87;;;;;;;;;;5003582;28;20245;-41
2022/07/02 02:12:13;;;;;;;6.67;2.00;;;;;;;;;;5001154;28;20905;-40
2022/07/02 02:14:39;;;;;;;3.73;1.90;;;;;;;;;;5006423;28;20530;-40
2022/07/02 02:17:05;;;;;;;4.07;1.90;;;;;;;;;;5007660;28;20327;-40
2022/07/02 02:19:31;;;;;;;5.07;1.83;;;;;;;;;;5005665;28;20184;-41
2022/07/02 02:21:58;;;;;;;4.83;2.17;;;;;;;;;;5005257;28;20431;-41
2022/07/02 02:24:24;;;;;;;5.10;1.93;;;;;;;;;;5003205;28;21059;-41
2022/07/02 02:26:50;;;;;;;4.27;1.97;;;;;;;;;;5003722;28;20204;-39
2022/07/02 02:29:16;;;;;;;6.27;1.73;;;;;;;;;;5009162;28;20419;-40
2022/07/02 02:31:42;;;;;;;5.50;1.87;;;;;;;;;;5003639;28;20352;-41
2022/07/02 02:34:08;;;;;;;6.17;1.80;;;;;;;;;;5007961;28;20249;-40
2022/07/02 02:36:35;;;;;;;3.47;1.77;;;;;;;;;;5010393;28;20397;-41
2022/07/02 02:39:01;;;;;;;3.33;1.67;;;;;;;;;;5009362;28;20569;-40
2022/07/02 02:41:27;;;;;;;4.43;1.77;;;;;;;;;;5008697;28;20176;-41
2022/07/02 02:43:53;;;;;;;5.23;1.90;;;;;;;;;;5012449;28;20685;-39
2022/07/02 02:46:19;;;;;;;4.90;2.00;;;;;;;;;;5012106;28;20553;-43
2022/07/02 02:48:45;;;;;;;4.80;2.10;;;;;;;;;;5005885;28;20176;-41
2022/07/02 02:51:14;;;;;;;5.27;1.60;;;;;;;;;;5007449;28;20374;-40
2022/07/02 02:53:42;;;;;;;5.83;2.10;;;;;;;;;;5007890;28;20437;-41
2022/07/02 02:56:08;;;;;;;5.20;1.90;;;;;;;;;;5010217;28;20187;-40
2022/07/02 02:58:34;;;;;;;8.10;1.90;;;;;;;;;;5010807;28;20235;-42
2022/07/02 03:01:00;;;;;;;3.13;2.13;;;;;;;;;;5008149;28;20191;-40
2022/07/02 03:03:27;;;;;;;3.73;2.07;;;;;;;;;;5012145;28;20201;-42
2022/07/02 03:05:53;;;;;;;3.93;1.90;;;;;;;;;;5006613;28;20790;-40
2022/07/02 03:08:19;;;;;;;7.07;1.83;;;;;;;;;;5013747;28;20176;-41
2022/07/02 03:10:47;;;;;;;3.57;2.00;;;;;;;;;;5013306;28;20176;-42
2022/07/02 03:13:14;;;;;;;2.73;2.00;;;;;;;;;;5010752;28;20627;-42
2022/07/02 03:15:40;;;;;;;5.53;2.00;;;;;;;;;;5011747;28;20284;-42
2022/07/02 03:18:06;;;;;;;3.57;1.77;;;;;;;;;;5015448;28;20187;-42
2022/07/02 03:20:32;;;;;;;5.33;1.90;;;;;;;;;;5015538;28;20654;-41
2022/07/02 03:22:58;;;;;;;6.90;2.00;;;;;;;;;;5008643;28;20544;-41
2022/07/02 03:25:24;;;;;;;4.13;1.90;;;;;;;;;;5015517;28;20203;-42
2022/07/02 03:27:50;;;;;;;7.20;2.77;;;;;;;;;;5017246;28;20587;-41
2022/07/02 03:30:17;;;;;;;5.13;2.30;;;;;;;;;;5014615;28;20182;-41
2022/07/02 03:32:43;;;;;;;5.30;1.83;;;;;;;;;;5009367;28;20251;-40
2022/07/02 03:35:09;;;;;;;8.00;2.30;;;;;;;;;;5011066;28;20180;-41
2022/07/02 03:37:35;;;;;;;6.27;2.67;;;;;;;;;;5011781;28;20223;-41
2022/07/02 03:40:01;;;;;;;3.03;2.17;;;;;;;;;;5014995;28;20498;-40
2022/07/02 03:42:27;;;;;;;4.87;2.57;;;;;;;;;;5014995;28;20238;-41
2022/07/02 03:44:53;;;;;;;5.10;2.30;;;;;;;;;;5012113;28;20422;-41
2022/07/02 03:47:19;;;;;;;6.77;2.40;;;;;;;;;;5014906;28;20462;-41
2022/07/02 03:49:46;;;;;;;7.43;2.43;;;;;;;;;;5011173;28;20933;-41
2022/07/02 03:52:12;;;;;;;6.33;2.30;;;;;;;;;;5012379;28;20482;-41
2022/07/02 03:54:38;;;;;;;8.97;2.20;;;;;;;;;;5015001;28;20175;-41
2022/07/02 03:57:04;;;;;;;3.90;2.20;;;;;;;;;;5013202;28;20188;-41
2022/07/02 03:59:30;;;;;;;5.37;2.37;;;;;;;;;;5013979;28;20966;-39
2022/07/02 04:01:56;;;;;;;4.93;2.10;;;;;;;;;;5013410;28;20208;-40
2022/07/02 04:04:22;;;;;;;5.50;2.50;;;;;;;;;;5011664;28;20752;-40
2022/07/02 04:06:49;;;;;;;5.70;2.43;;;;;;;;;;5006653;28;20657;-40
2022/07/02 04:09:15;;;;;;;4.27;2.30;;;;;;;;;;5014803;28;20330;-40
2022/07/02 04:11:41;;;;;;;8.95;2.85;;;;;;;;;;5009049;28;20499;-39
2022/07/02 04:14:07;;;;;;;4.93;2.30;;;;;;;;;;5006676;28;21469;-40
2022/07/02 04:16:33;;;;;;;5.37;2.40;;;;;;;;;;5012623;28;20176;-40
2022/07/02 04:18:59;;;;;;;5.30;2.60;;;;;;;;;;5009325;28;20176;-41
2022/07/02 04:21:25;;;;;;;5.93;2.10;;;;;;;;;;5012481;28;20885;-40
2022/07/02 04:23:51;;;;;;;5.27;2.50;;;;;;;;;;5007478;28;20207;-40
2022/07/02 04:26:17;;;;;;;7.50;2.50;;;;;;;;;;5010645;28;20421;-40
2022/07/02 04:28:44;;;;;;;8.50;2.47;;;;;;;;;;5009429;28;20640;-39
2022/07/02 04:31:10;;;;;;;3.30;2.20;;;;;;;;;;5011965;28;20376;-40
2022/07/02 04:33:36;;;;;;;6.07;2.20;;;;;;;;;;5010715;28;20177;-40
2022/07/02 04:36:02;;;;;;;5.50;2.13;;;;;;;;;;5008417;28;20607;-41
2022/07/02 04:38:28;;;;;;;4.07;2.27;;;;;;;;;;5008179;28;20185;-39
2022/07/02 04:40:54;;;;;;;7.83;2.80;;;;;;;;;;5013287;28;20199;-40
2022/07/02 04:43:20;;;;;;;4.37;2.37;;;;;;;;;;5011568;28;20411;-41
2022/07/02 04:45:46;;;;;;;6.47;2.60;;;;;;;;;;5008952;28;20172;-41
2022/07/02 04:48:12;;;;;;;8.43;2.40;;;;;;;;;;5010791;28;20706;-39
2022/07/02 04:50:38;;;;;;;6.23;2.77;;;;;;;;;;5013344;28;20643;-40
2022/07/02 04:53:04;;;;;;;7.17;2.40;;;;;;;;;;5011030;28;20168;-41
2022/07/02 04:55:31;;;;;;;3.80;2.30;;;;;;;;;;5010722;28;20177;-40
2022/07/02 04:57:57;;;;;;;6.83;2.30;;;;;;;;;;5013134;28;20203;-41
2022/07/02 05:00:23;;;;;;;8.93;2.53;;;;;;;;;;5011061;28;20549;-41
2022/07/02 05:02:49;;;;;;;5.37;2.37;;;;;;;;;;5013091;28;20524;-41
2022/07/02 05:05:15;;;;;;;3.63;1.80;;;;;;;;;;5013277;28;20532;-41
2022/07/02 05:07:41;;;;;;;6.17;2.10;;;;;;;;;;5009840;28;20283;-40
2022/07/02 05:10:07;;;;;;;8.03;2.50;;;;;;;;;;5009853;28;20175;-41
2022/07/02 05:12:33;;;;;;;2.97;2.13;;;;;;;;;;5013980;28;20172;-40
2022/07/02 05:14:59;;;;;;;5.33;2.10;;;;;;;;;;5010833;28;20395;-41
2022/07/02 05:17:25;;;;;;;6.60;2.50;;;;;;;;;;5008389;28;20188;-40
2022/07/02 05:19:51;;;;;;;4.73;2.10;;;;;;;;;;5011111;28;20517;-41
2022/07/02 05:22:18;;;;;;;5.57;2.10;;;;;;;;;;5011531;28;20413;-40
2022/07/02 05:24:44;;;;;;;4.00;2.00;;;;;;;;;;5010209;28;20648;-42
2022/07/02 05:27:10;;;;;;;8.53;2.13;;;;;;;;;;5010382;28;20164;-42
2022/07/02 05:29:36;;;;;;;6.47;2.43;;;;;;;;;;5015439;28;20418;-43
2022/07/02 05:32:02;;;;;;;5.23;2.03;;;;;;;;;;5011375;28;20735;-43
2022/07/02 05:34:28;;;;;;;5.27;2.23;;;;;;;;;;5007865;28;20576;-39
2022/07/02 05:36:54;;;;;;;3.47;1.90;;;;;;;;;;5003717;28;20458;-40
2022/07/02 05:39:20;;;;;;;5.13;1.87;;;;;;;;;;5013086;28;20172;-40
2022/07/02 05:41:46;;;;;;;3.53;1.90;;;;;;;;;;5009326;28;20484;-41
2022/07/02 05:44:12;;;;;;;6.37;2.30;;;;;;;;;;5007569;28;20885;-41
2022/07/02 05:46:38;;;;;;;5.17;2.20;;;;;;;;;;5011828;28;20168;-40
2022/07/02 05:49:04;;;;;;;6.20;2.27;;;;;;;;;;5015008;28;20544;-42
2022/07/02 05:51:30;;;;;;;6.47;2.20;;;;;;;;;;5010278;28;20196;-41
2022/07/02 05:53:56;;;;;;;7.30;2.60;;;;;;;;;;5012091;28;20711;-39
2022/07/02 05:56:23;;;;;;;12.00;2.50;;;;;;;;;;5008196;28;20764;-41
2022/07/02 05:58:49;;;;;;;4.67;2.37;;;;;;;;;;5007216;28;20746;-40
2022/07/02 06:01:15;;;;;;;6.30;2.57;;;;;;;;;;5012548;28;20520;-41
2022/07/02 06:03:41;;;;;;;7.90;2.60;;;;;;;;;;5011999;28;20532;-40
2022/07/02 06:08:52;;;;;;;6.90;2.87;;;;;;;;;;5011119;28;20183;-41
2022/07/02 06:11:18;;;;;;;6.57;2.80;;;;;;;;;;5013740;28;20517;-42
2022/07/02 06:13:44;;;;;;;8.10;3.03;;;;;;;;;;5010641;28;20210;-41
2022/07/02 06:16:10;;;;;;;11.10;3.03;;;;;;;;;;5006352;28;20186;-42
2022/07/02 06:18:37;;;;;;;7.17;2.63;;;;;;;;;;5014108;28;20359;-42
2022/07/02 06:21:03;;;;;;;7.00;3.10;;;;;;;;;;5005745;28;20192;-41
2022/07/02 06:23:29;;;;;;;7.37;2.80;;;;;;;;;;5006453;28;20318;-42
2022/07/02 06:25:55;;;;;;;7.07;3.30;;;;;;;;;;5009247;28;20590;-42
2022/07/02 06:28:21;;;;;;;6.90;3.47;;;;;;;;;;5009705;28;20945;-42
2022/07/02 06:30:47;;;;;;;5.77;3.57;;;;;;;;;;4999792;28;20732;-41
2022/07/02 06:33:13;;;;;;;8.00;4.00;;;;;;;;;;5006242;28;20176;-41
2022/07/02 06:35:42;;;;;;;7.37;3.57;;;;;;;;;;5005228;28;20720;-41
2022/07/02 06:38:08;;;;;;;8.93;3.90;;;;;;;;;;5013362;28;20222;-41
2022/07/02 06:40:35;;;;;;;9.50;3.73;;;;;;;;;;5010425;28;20176;-41
2022/07/02 06:43:01;;;;;;;10.80;4.70;;;;;;;;;;5011136;28;20199;-41
2022/07/02 06:45:27;;;;;;;11.23;5.60;;;;;;;;;;5014635;28;20211;-41
2022/07/02 06:47:53;;;;;;;13.77;5.80;;;;;;;;;;5010062;28;20242;-41
2022/07/02 06:50:19;;;;;;;12.80;6.53;;;;;;;;;;5011078;28;20376;-41
2022/07/02 06:52:46;;;;;;;13.23;7.40;;;;;;;;;;5012602;28;20179;-39
2022/07/02 06:55:13;;;;;;;11.30;5.97;;;;;;;;;;5015962;28;21280;-42
2022/07/02 06:57:40;;;;;;;11.30;6.50;;;;;;;;;;5018819;28;20226;-41
2022/07/02 07:00:06;;;;;;;12.70;7.13;;;;;;;;;;5017042;28;20387;-41
2022/07/02 07:02:32;;;;;;;12.87;6.07;;;;;;;;;;5017038;28;20200;-41
2022/07/02 07:04:58;;;;;;;13.57;7.17;;;;;;;;;;5013673;28;20749;-41
2022/07/02 07:07:26;;;;;;;9.70;5.40;;;;;;;;;;5017425;28;20762;-41
2022/07/02 07:09:53;;;;;;;11.70;6.17;;;;;;;;;;5015649;28;20185;-41
2022/07/02 07:12:19;;;;;;;13.37;6.77;;;;;;;;;;5016730;28;20168;-41
2022/07/02 07:14:45;;;;;;;12.93;6.27;;;;;;;;;;5016517;28;20172;-40
2022/07/02 07:17:11;;;;;;;14.10;7.00;;;;;;;;;;5020641;28;20219;-42
2022/07/02 07:19:37;;;;;;;11.43;6.67;;;;;;;;;;5016392;28;20422;-40
2022/07/02 07:22:04;;;;;;;11.07;5.90;;;;;;;;;;5018024;28;20196;-40
2022/07/02 07:24:30;;;;;;;10.03;6.70;;;;;;;;;;5020628;28;20160;-40
2022/07/02 07:26:57;;;;;;;10.40;5.90;;;;;;;;;;5014635;28;20520;-41
2022/07/02 07:29:23;;;;;;;10.67;7.27;;;;;;;;;;5018279;28;20467;-40
2022/07/02 07:31:49;;;;;;;10.43;7.03;;;;;;;;;;5021516;28;20172;-41
2022/07/02 07:34:15;;;;;;;12.73;6.00;;;;;;;;;;5016265;28;20647;-41
2022/07/02 07:36:42;;;;;;;12.33;7.10;;;;;;;;;;5015413;28;20203;-42
2022/07/02 07:39:08;;;;;;;9.97;6.40;;;;;;;;;;5019061;28;20427;-41
2022/07/02 07:41:34;;;;;;;11.50;6.33;;;;;;;;;;5018495;28;20174;-39
2022/07/02 07:44:01;;;;;;;15.13;7.73;;;;;;;;;;5015992;28;20592;-41
2022/07/02 07:46:27;;;;;;;12.77;7.20;;;;;;;;;;5015403;28;20183;-41
2022/07/02 07:48:53;;;;;;;11.93;6.40;;;;;;;;;;5018909;28;20251;-42
2022/07/02 07:51:19;;;;;;;15.00;6.90;;;;;;;;;;5013297;28;20787;-41
2022/07/02 07:53:45;;;;;;;11.03;7.37;;;;;;;;;;5016546;28;20567;-41
2022/07/02 07:56:14;;;;;;;12.90;7.50;;;;;;;;;;5018035;28;20960;-42
2022/07/02 07:58:40;;;;;;;17.50;7.43;;;;;;;;;;5016426;28;20626;-41
2022/07/02 08:01:06;;;;;;;16.00;8.50;;;;;;;;;;5011674;28;20295;-40
2022/07/02 08:03:32;;;;;;;13.50;7.50;;;;;;;;;;5012177;28;20511;-41
2022/07/02 08:05:58;;;;;;;11.87;6.50;;;;;;;;;;5017726;28;20307;-41
2022/07/02 08:08:24;;;;;;;16.30;6.43;;;;;;;;;;5016754;28;20184;-41
2022/07/02 08:10:51;;;;;;;13.63;7.10;;;;;;;;;;5017287;28;20176;-41
2022/07/02 08:13:17;;;;;;;9.63;6.20;;;;;;;;;;5014821;28;20399;-40
2022/07/02 08:15:43;;;;;;;10.83;5.77;;;;;;;;;;5016428;28;20576;-41
2022/07/02 08:18:09;;;;;;;9.57;4.63;;;;;;;;;;5016581;28;20215;-40
2022/07/02 08:20:36;;;;;;;10.97;4.63;;;;;;;;;;5015183;28;20184;-39
2022/07/02 08:23:02;;;;;;;12.93;5.83;;;;;;;;;;5006604;28;20234;-41
2022/07/02 08:25:30;;;;;;;8.57;4.70;;;;;;;;;;5019286;28;20311;-41
2022/07/02 08:27:56;;;;;;;8.77;5.07;;;;;;;;;;5018075;28;20180;-41
2022/07/02 08:30:22;;;;;;;10.27;5.17;;;;;;;;;;5017559;28;20768;-41
2022/07/02 08:32:50;;;;;;;9.70;5.37;;;;;;;;;;5014809;28;20180;-39
2022/07/02 08:35:17;;;;;;;9.17;4.40;;;;;;;;;;5018066;28;20567;-41
2022/07/02 08:37:43;;;;;;;16.50;6.80;;;;;;;;;;5016098;28;20419;-41
2022/07/02 08:40:10;;;;;;;12.23;6.00;;;;;;;;;;5017782;28;20692;-42
2022/07/02 08:42:36;;;;;;;11.10;5.57;;;;;;;;;;5015235;28;20638;-40
2022/07/02 08:45:03;;;;;;;11.10;4.90;;;;;;;;;;5013224;28;20348;-41
2022/07/02 08:47:30;;;;;;;10.60;4.87;;;;;;;;;;5015215;28;20698;-42
2022/07/02 08:49:57;;;;;;;15.67;5.33;;;;;;;;;;5011778;28;20623;-41
2022/07/02 08:52:24;;;;;;;10.23;4.90;;;;;;;;;;5013761;28;20915;-41
2022/07/02 08:54:52;;;;;;;11.87;5.03;;;;;;;;;;5018026;28;20448;-43
2022/07/02 08:57:20;;;;;;;9.20;4.60;;;;;;;;;;5015300;28;20206;-41
2022/07/02 08:59:46;;;;;;;16.07;5.53;;;;;;;;;;5012346;28;20223;-41
2022/07/02 09:02:13;;;;;;;13.03;5.13;;;;;;;;;;5016137;28;20779;-41
2022/07/02 09:04:45;;;;;;;13.97;5.50;;;;;;;;;;5016829;28;20715;-41
2022/07/02 09:07:12;;;;;;;15.93;5.10;;;;;;;;;;5015187;28;20184;-41
2022/07/02 09:09:41;;;;;;;9.13;4.70;;;;;;;;;;5018595;28;20181;-41
2022/07/02 09:12:11;;;;;;;15.57;4.80;;;;;;;;;;5016473;28;20692;-40
2022/07/02 09:14:37;;;;;;;15.13;5.57;;;;;;;;;;5016648;28;20468;-41
2022/07/02 09:17:06;;;;;;;12.30;4.73;;;;;;;;;;5015779;28;20211;-41
2022/07/02 09:19:32;;;;;;;32.10;5.63;;;;;;;;;;5013227;28;20215;-41
2022/07/02 09:21:58;;;;;;;8.83;4.60;;;;;;;;;;5012303;28;20297;-40
2022/07/02 09:24:43;;;;;;;15.47;5.83;;;;;;;;;;5016654;28;20426;-41
2022/07/02 09:27:11;;;;;;;12.37;5.13;;;;;;;;;;5013916;28;20557;-42
2022/07/02 09:29:46;;;;;;;13.33;5.20;;;;;;;;;;5012795;28;20173;-41
2022/07/02 09:32:12;;;;;;;13.30;4.70;;;;;;;;;;5018100;28;20183;-42
2022/07/02 09:34:45;;;;;;;11.37;4.37;;;;;;;;;;5012496;28;20228;-42
2022/07/02 09:37:22;;;;;;;14.40;5.80;;;;;;;;;;5014871;28;20699;-42
2022/07/02 09:39:49;;;;;;;13.47;5.03;;;;;;;;;;5014010;28;20545;-42
2022/07/02 09:42:25;;;;;;;14.63;5.30;;;;;;;;;;5015610;28;20198;-42
2022/07/02 09:44:51;;;;;;;16.73;4.97;;;;;;;;;;5013855;28;20768;-42
2022/07/02 09:47:17;;;;;;;13.73;5.20;;;;;;;;;;5015453;28;20216;-41
2022/07/02 09:49:47;;;;;;;11.00;4.30;;;;;;;;;;5014086;28;20653;-41
2022/07/02 09:52:17;;;;;;;11.37;4.20;;;;;;;;;;5010986;28;20438;-42
2022/07/02 09:54:43;;;;;;;11.30;4.07;;;;;;;;;;5014262;28;20216;-42
2022/07/02 09:57:10;;;;;;;10.23;4.73;;;;;;;;;;5015268;28;20499;-41
2022/07/02 09:59:37;;;;;;;13.03;4.50;;;;;;;;;;5010201;28;20292;-42
2022/07/02 10:02:03;;;;;;;11.57;4.30;;;;;;;;;;5012201;28;20207;-42
2022/07/02 10:04:31;;;;;;;12.37;4.23;;;;;;;;;;5015998;28;20217;-40
2022/07/02 10:06:59;;;;;;;10.30;4.10;;;;;;;;;;5015643;28;20782;-40
2022/07/02 10:09:25;;;;;;;13.63;4.33;;;;;;;;;;5014115;28;20481;-41
2022/07/02 10:11:52;;;;;;;13.80;5.00;;;;;;;;;;5012399;28;20414;-40
2022/07/02 10:14:21;;;;;;;13.80;4.87;;;;;;;;;;5012494;28;20569;-39
2022/07/02 10:16:48;;;;;;;11.93;4.37;;;;;;;;;;5014123;28;20187;-41
2022/07/02 10:19:16;;;;;;;12.90;5.17;;;;;;;;;;5023580;28;20194;-41
2022/07/02 10:21:42;;;;;;;14.13;4.83;;;;;;;;;;5019561;28;20175;-41
2022/07/02 10:24:09;;;;;;;11.83;4.57;;;;;;;;;;5021636;28;20429;-41
2022/07/02 10:26:36;;;;;;;14.50;4.87;;;;;;;;;;5021923;28;20203;-41
2022/07/02 10:29:02;;;;;;;10.03;4.10;;;;;;;;;;5013198;28;20216;-40
2022/07/02 10:31:31;;;;;;;12.50;4.50;;;;;;;;;;5009599;28;20179;-41
2022/07/02 10:34:00;;;;;;;10.70;4.23;;;;;;;;;;5002984;28;20178;-41
2022/07/02 10:36:26;;;;;;;11.23;4.43;;;;;;;;;;5008676;28;20230;-41
2022/07/02 10:38:57;;;;;;;11.70;4.90;;;;;;;;;;5010070;28;20187;-41
2022/07/02 10:41:26;;;;;;;11.03;4.63;;;;;;;;;;5015024;28;20263;-41
2022/07/02 10:43:54;;;;;;;12.87;4.63;;;;;;;;;;5010564;28;20194;-41
2022/07/02 10:46:22;;;;;;;9.67;4.80;;;;;;;;;;5008888;28;20174;-40
2022/07/02 10:48:56;;;;;;;11.10;4.57;;;;;;;;;;5009248;28;20487;-41
2022/07/02 10:51:26;;;;;;;11.83;4.83;;;;;;;;;;5012843;28;20178;-41
2022/07/02 10:53:54;;;;;;;8.70;4.97;;;;;;;;;;5006805;28;20181;-41
2022/07/02 10:56:21;;;;;;;12.10;4.73;;;;;;;;;;5009000;28;20181;-41
2022/07/02 10:58:47;;;;;;;11.73;4.73;;;;;;;;;;5008177;28;20238;-42
2022/07/02 11:01:21;;;;;;;13.63;4.37;;;;;;;;;;5006233;28;20210;-42
2022/07/02 11:03:56;;;;;;;9.83;4.77;;;;;;;;;;5002419;28;20213;-42
2022/07/02 11:06:23;;;;;;;12.43;5.53;;;;;;;;;;5012356;28;20177;-42
2022/07/02 11:08:59;;;;;;;15.07;5.53;;;;;;;;;;5010440;28;20183;-42
2022/07/02 11:11:35;;;;;;;14.80;5.07;;;;;;;;;;5007328;28;21014;-40
2022/07/02 11:14:03;;;;;;;13.97;5.10;;;;;;;;;;5015338;28;20874;-41
2022/07/02 11:16:33;;;;;;;11.50;4.70;;;;;;;;;;5016118;28;20271;-41
2022/07/02 11:19:00;;;;;;;9.40;4.03;;;;;;;;;;5020561;28;20308;-41
2022/07/02 11:21:26;;;;;;;14.03;4.40;;;;;;;;;;5021298;28;20198;-41
2022/07/02 11:23:53;;;;;;;9.23;3.73;;;;;;;;;;5022612;28;20283;-41
2022/07/02 11:26:20;;;;;;;14.67;4.40;;;;;;;;;;5017277;28;20172;-41
2022/07/02 11:28:46;;;;;;;7.87;3.97;;;;;;;;;;5015430;28;20175;-42
2022/07/02 11:31:13;;;;;;;11.90;4.30;;;;;;;;;;5015991;28;20171;-42
2022/07/02 11:33:44;;;;;;;9.47;3.73;;;;;;;;;;5012671;28;20850;-41
2022/07/02 11:36:10;;;;;;;14.17;4.90;;;;;;;;;;5017005;28;20179;-41
2022/07/02 11:38:37;;;;;;;10.03;3.97;;;;;;;;;;5013821;28;20286;-41
2022/07/02 11:41:04;;;;;;;9.87;4.33;;;;;;;;;;5017321;28;20183;-42
2022/07/02 11:43:31;;;;;;;10.20;4.07;;;;;;;;;;5016019;28;20681;-41
2022/07/02 11:45:57;;;;;;;12.00;3.93;;;;;;;;;;5013158;28;20189;-42
2022/07/02 11:48:24;;;;;;;10.10;3.70;;;;;;;;;;5015242;28;21134;-41
2022/07/02 11:50:57;;;;;;;9.77;3.73;;;;;;;;;;5018081;28;20179;-42
2022/07/02 11:53:23;;;;;;;10.90;3.80;;;;;;;;;;5014599;28;20256;-42
2022/07/02 11:55:50;;;;;;;9.43;3.87;;;;;;;;;;5011591;28;20280;-42
2022/07/02 11:58:17;;;;;;;10.87;4.17;;;;;;;;;;5015549;28;20175;-42
2022/07/02 12:00:43;;;;;;;11.97;3.70;;;;;;;;;;5013364;28;20960;-41
2022/07/02 12:03:10;;;;;;;7.23;3.57;;;;;;;;;;5009804;28;20739;-40
2022/07/02 12:05:36;;;;;;;9.60;4.27;;;;;;;;;;5010677;28;20652;-40
2022/07/02 12:08:04;;;;;;;10.53;4.13;;;;;;;;;;5003531;28;20822;-40
2022/07/02 12:10:38;;;;;;;12.70;3.80;;;;;;;;;;5007517;28;20238;-41
2022/07/02 12:13:08;;;;;;;11.63;3.80;;;;;;;;;;5006356;28;20179;-40
2022/07/02 12:15:41;;;;;;;8.33;3.80;;;;;;;;;;5006128;28;20309;-41
2022/07/02 12:18:15;;;;;;;7.93;3.40;;;;;;;;;;4999784;28;20262;-40
2022/07/02 12:20:41;;;;;;;8.50;3.30;;;;;;;;;;5004748;28;20176;-41
2022/07/02 12:23:07;;;;;;;7.63;3.27;;;;;;;;;;5006973;28;20497;-41
2022/07/02 12:25:42;;;;;;;11.10;3.47;;;;;;;;;;5005144;28;20316;-41
2022/07/02 12:29:53;;;;;;;8.43;3.30;;;;;;;;;;5008650;28;20177;-40
2022/07/02 12:30:54;;;;;;;5.60;3.00;;;;;;;;;;5007744;28;20187;-39
2022/07/02 12:33:31;;;;;;;8.53;3.50;;;;;;;;;;5008115;28;20589;-39
2022/07/02 12:36:04;;;;;;;7.90;3.30;;;;;;;;;;5006400;28;20425;-41
2022/07/02 12:38:41;;;;;;;9.03;3.40;;;;;;;;;;5006770;28;20746;-41
2022/07/02 12:41:07;;;;;;;7.37;3.03;;;;;;;;;;5007502;28;20299;-41
2022/07/02 12:43:33;;;;;;;8.50;3.23;;;;;;;;;;5002263;28;20197;-39
2022/07/02 12:46:06;;;;;;;7.40;3.30;;;;;;;;;;5010432;28;20620;-43
2022/07/02 12:48:32;;;;;;;8.07;3.27;;;;;;;;;;5009021;28;20226;-41
2022/07/02 12:51:01;;;;;;;9.13;3.10;;;;;;;;;;5004416;28;20188;-41
2022/07/02 12:53:28;;;;;;;13.73;3.30;;;;;;;;;;5006164;28;20323;-42
2022/07/02 12:55:55;;;;;;;5.93;2.63;;;;;;;;;;5008202;28;20182;-42
2022/07/02 12:58:21;;;;;;;9.17;3.20;;;;;;;;;;5005435;28;20598;-41
2022/07/02 13:00:48;;;;;;;9.40;3.27;;;;;;;;;;5010838;28;20188;-42
2022/07/02 13:03:15;;;;;;;9.00;2.97;;;;;;;;;;5006920;28;20193;-43
2022/07/02 13:05:45;;;;;;;6.30;3.20;;;;;;;;;;5008074;28;20656;-42
2022/07/02 13:08:11;;;;;;;7.27;3.00;;;;;;;;;;4996226;28;20180;-41
2022/07/02 13:10:38;;;;;;;8.50;3.27;;;;;;;;;;5006762;28;20289;-41
2022/07/02 13:13:05;;;;;;;8.57;3.10;;;;;;;;;;4997566;28;20191;-42
2022/07/02 13:15:31;;;;;;;11.53;3.00;;;;;;;;;;4997183;28;20179;-42
2022/07/02 13:17:58;;;;;;;8.67;3.20;;;;;;;;;;5005431;28;20459;-41
2022/07/02 13:20:24;;;;;;;7.67;3.10;;;;;;;;;;5000933;28;20576;-41
2022/07/02 13:22:50;;;;;;;6.07;2.80;;;;;;;;;;5007114;28;20200;-40
2022/07/02 13:25:16;;;;;;;7.17;2.70;;;;;;;;;;5004652;28;20275;-41
2022/07/02 13:27:42;;;;;;;8.87;3.10;;;;;;;;;;5006907;28;20299;-41
2022/07/02 13:30:14;;;;;;;6.20;2.87;;;;;;;;;;5006483;28;21077;-42
2022/07/02 13:32:40;;;;;;;8.53;2.80;;;;;;;;;;5013977;28;20353;-42
2022/07/02 13:35:08;;;;;;;8.53;3.23;;;;;;;;;;5019156;28;20704;-41
2022/07/02 13:37:34;;;;;;;11.73;3.50;;;;;;;;;;5015477;28;20373;-42
2022/07/02 13:40:00;;;;;;;8.17;3.20;;;;;;;;;;5012762;28;20186;-42
2022/07/02 13:42:26;;;;;;;8.80;2.90;;;;;;;;;;5009523;28;20222;-41
2022/07/02 13:44:52;;;;;;;6.13;2.63;;;;;;;;;;5011572;28;20230;-42
2022/07/02 13:47:19;;;;;;;6.20;3.20;;;;;;;;;;5015144;28;20189;-42
2022/07/02 13:49:45;;;;;;;9.13;3.00;;;;;;;;;;5010217;28;20204;-41
2022/07/02 13:52:11;;;;;;;8.57;2.57;;;;;;;;;;5011390;28;20286;-42
2022/07/02 13:54:37;;;;;;;7.87;3.00;;;;;;;;;;5010258;28;20184;-41
2022/07/02 13:57:03;;;;;;;6.45;2.67;;;;;;;;;;5010620;28;20446;-40
2022/07/02 13:59:29;;;;;;;5.00;2.63;;;;;;;;;;5012589;28;20512;-41
2022/07/02 14:01:55;;;;;;;8.18;2.70;;;;;;;;;;5012732;28;20173;-42
2022/07/02 14:04:21;;;;;;;10.23;3.30;;;;;;;;;;5011323;28;20176;-41
2022/07/02 14:06:48;;;;;;;8.50;3.10;;;;;;;;;;5013142;28;20211;-42
2022/07/02 14:09:14;;;;;;;6.10;2.88;;;;;;;;;;5016871;28;20199;-42
2022/07/02 14:11:40;;;;;;;11.07;2.93;;;;;;;;;;5012772;28;20684;-42
2022/07/02 14:14:07;;;;;;;5.95;2.83;;;;;;;;;;5013209;28;20299;-42
2022/07/02 14:16:33;;;;;;;6.82;2.50;;;;;;;;;;5040518;28;20631;-41
2022/07/02 14:18:59;;;;;;;8.07;3.25;;;;;;;;;;5014975;28;20433;-40
2022/07/02 14:21:25;;;;;;;5.43;2.70;;;;;;;;;;5012843;28;20620;-43
2022/07/02 14:23:51;;;;;;;13.67;3.40;;;;;;;;;;5015812;28;20214;-40
2022/07/02 14:26:18;;;;;;;14.60;3.50;;;;;;;;;;5012900;28;20581;-41
2022/07/02 14:28:44;;;;;;;6.87;2.70;;;;;;;;;;5011847;28;20228;-41
2022/07/02 14:31:10;;;;;;;7.07;2.93;;;;;;;;;;5008731;28;20186;-42
2022/07/02 14:33:36;;;;;;;7.30;2.80;;;;;;;;;;5011097;28;20187;-42
2022/07/02 14:36:03;;;;;;;8.02;3.38;;;;;;;;;;5009548;28;20882;-42
2022/07/02 14:38:29;;;;;;;7.57;2.47;;;;;;;;;;5015138;28;20397;-42
2022/07/02 14:41:30;;;;;;;6.63;2.30;;;;;;;;;;5014653;28;20348;-42
2022/07/02 14:43:41;;;;;;;3.22;2.17;;;;;;;;;;5012696;28;20215;-42